Membership Financial Reports

UserID Time Date Name Mobile Email Package Amount GST Fee Mode Trx.Approval
10768 12:28:02 11-05-2023 Kelly Fung 0412383875 kellyfung1019@icloud.com Casual Dancer $4.06 $0.406 $0 Credit Card Approved
395 01:26:48 11-05-2023 Emily turland 0405841906 theempireps@gmail.com Elite Dancers $8.18 $0.818 $0 Credit Card Approved
15938 02:02:39 11-05-2023 Catherine Lech 0438908897 catherinelech@bigpond.com Casual Dancer $4.06 $0.406 $0 Credit Card Approved
15939 02:04:26 11-05-2023 Kirsty-Ann Tate 0437427997 k-ann15@hotmail.com Casual Dancer $4.06 $0.406 $0 Credit Card Approved
2538 02:49:32 11-05-2023 Robyn Parras 0410344685 robyn@prodigyperformingarts.com.au Studio Package $20.86 $2.086 $0 Credit Card Approved
15941 03:03:12 11-05-2023 Basil Schild 0421378907 auntyraelene@bigpond.com Casual Dancer $4.06 $0.406 $0 Credit Card Approved
10515 03:15:33 11-05-2023 Georgia New 0438820434 spuddie_juddie@hotmail.com Casual Dancer $4.06 $0.406 $0 Credit Card Approved
10844 03:21:08 11-05-2023 Ella 0411844421 anna.c.teh@gmail.com Casual Dancer $4.06 $0.406 $0 Credit Card Approved
15942 03:23:54 11-05-2023 Hollie Daniells 0448974713 belindasurch@gmail.com Studio Package $13.86 $1.386 $0 Credit Card Approved
15943 03:43:31 11-05-2023 Jane Stanley 0414605433 enquiries@jsdancecentre.com.au Elite Dancers $8.18 $0.818 $0 Credit Card Approved
15944 03:53:57 11-05-2023 BRITANNIE LEVEN 0499353239 britanniegresham4@gmail.com Casual Dancer $4.06 $0.406 $0 Credit Card Approved
15945 04:09:42 11-05-2023 Leanne Davis 0402472646 dancekineticmenai@gmail.com Studio Package $20.86 $2.086 $0 Credit Card Approved
10915 04:51:09 11-05-2023 Travis Hope 0455499676 travis.d.hope@gmail.com Elite Dancers $8.18 $0.818 $0 Credit Card Approved
12217 07:07:12 11-05-2023 Jessica Johnson 491188777 jessicajdancer@outlook.com Casual Dancer $4.06 $0.406 $0 Credit Card Approved
4904 07:08:10 11-05-2023 Kim Moss 0450210545 kimmoss79@gmail.com Elite Dancers $14.78 $1.478 $0 Credit Card Approved
10490 08:34:24 11-05-2023 Carmen Bliss 0438730579 c.bliss85@hotmail.com Elite Dancers $14.78 $1.478 $0 Credit Card Approved
15947 08:44:37 11-05-2023 Chelsie Assed 0412890503 cmaschoolofdance@gmail.com Studio Package $13.86 $1.386 $0 Credit Card Approved
4873 09:08:41 11-05-2023 Ryley James Cutts 0455473892 ryleycutts@Gmail.com Casual Dancer $7.06 $0.706 $0 Credit Card Approved
10818 09:10:32 11-05-2023 melissa Lowell 0428427583 dandmlowell@bigpond.com Elite Dancers $8.18 $0.818 $0 Credit Card Approved
447 09:38:13 11-05-2023 Lorraine Bennett 0417060098 lorraine@classicalballetcentre.com.au Studio Package $20.86 $2.086 $0 Credit Card Approved
10938 09:55:54 11-05-2023 Michaela Plichta 0422151707 michaela.plichta@gmail.com Elite Dancers $5.15 $0.515 $0 Credit Card Approved
10625 10:11:42 11-05-2023 Abigail Morgan 0417699307 bindy1972@gmail.com Casual Dancer $4.06 $0.406 $0 Credit Card Approved
2387 11:12:46 11-05-2023 Vanessa McAuliffe 0422316404 nessmcauliffe@hotmail.com Elite Dancers $1.09 $0.109 $0 Credit Card Approved
21818 06:53:37 11-05-2024 Vogue catlin 0435059767 tarryncatlin@yahoo.com.au Casual Dancer $5.05 $0.505 $0 Credit Card Approved
5290 09:04:03 11-05-2024 Dhana Oakman 0402913186 dhanamaree@yahoo.com.au Elite Dancers $18.35 $1.835 $0 Credit Card Approved
7218 10:26:53 11-05-2024 Sharlene Ponzo 0414981603 sharlene@universaldancecompany.com.au Elite Dancers $10.43 $1.043 $0 Credit Card Approved
16557 11:15:45 11-05-2024 Katrina 0408467997 rkfitz21@gmail.com Casual Dancer $5.05 $0.505 $0 Credit Card Approved
0 11:41:43 11-05-2024 $0.00 $0 $0 Coupon Used Free Offer Approved
21890 12:03:58 11-05-2024 Kayla Si 0477582956 si.kayla25@gmail.com Casual Dancer $5.05 $0.505 $0 Credit Card Approved
21891 01:55:25 11-05-2024 Angela Carroll 0407386109 angela.correani11@gmail.com Casual Dancer $5.05 $0.505 $0 Credit Card Approved
Page 699 of 3244